Latest Weather Observations for Rottnest Island

IDW60801

Issued at 11:32 pm WST Friday 29 April 2016 (issued every 30 minutes, with the page automatically refreshed every 10 minutes)

About weather observations | Map of weather stations | Latest weather observations for WA | Other Formats
Station Details ID: 009193 Name: ROTTNEST ISLAND Lat: -32.01 Lon: 115.50 Height: 43.1 m
Data from the previous 72 hours. | See also: Recent months at Rottnest Island
Date/Time
WST
Temp
°C
App
Temp
°C
Dew
Point
Rel
Hum
%
Delta-T
°C
Wind Press
QNH
hPa
Press
MSL
hPa
Rain
since 9 am
mm
Dir
 
Spd
km/h
Gust
km/h
Spd
kts
Gust
kts
29/11:30pm 17.4 10.8 12.5 73 2.7 SSW 39 54 21 29 1015.6 1015.4 1.4
29/11:00pm 16.5 9.9 13.8 84 1.5 SSW 41 54 22 29 1015.7 1015.5 1.4
29/10:53pm 16.7 12.4 14.5 87 1.3 SSW 30 50 16 27 1015.8 1015.6 1.4
29/10:30pm 15.8 10.4 13.8 88 1.1 SSW 35 48 19 26 1016.0 1015.8 1.4
29/10:21pm 16.0 11.9 13.7 86 1.3 SSW 28 52 15 28 1015.8 1015.6 1.0
29/10:00pm 16.5 12.2 14.3 87 1.3 SSW 30 37 16 20 1015.8 1015.6 1.0
29/09:30pm 16.3 10.6 14.1 87 1.3 SSW 37 46 20 25 1015.5 1015.3 1.0
29/09:09pm 16.2 8.9 14.4 89 1.0 SSW 46 65 25 35 1015.3 1015.1 1.0
29/09:00pm 16.2 7.7 14.2 88 1.1 SSW 52 65 28 35 1015.3 1015.1 1.0
29/08:53pm 16.7 9.9 14.3 86 1.4 WSW 43 59 23 32 1015.1 1014.9 1.0
29/08:36pm 16.5 11.8 14.2 86 1.3 WSW 32 57 17 31 1015.4 1015.2 1.0
29/08:30pm 15.9 10.4 13.6 86 1.3 WSW 35 50 19 27 1015.5 1015.3 1.0
29/08:05pm 16.9 8.8 13.2 79 2.1 WSW 48 67 26 36 1015.5 1015.3 0.8
29/08:00pm 17.7 10.5 13.2 75 2.5 WSW 43 67 23 36 1015.4 1015.2 0.0
29/07:59pm 17.9 11.1 13.2 74 2.7 WSW 41 67 22 36 1015.4 1015.2 0.0
29/07:57pm 18.5 12.4 13.1 71 3.0 WSW 37 52 20 28 1015.3 1015.1 0.0
29/07:30pm 18.6 11.7 12.8 69 3.3 W 41 50 22 27 1015.2 1015.0 0.0
29/07:00pm 18.9 12.8 11.9 64 3.9 W 35 50 19 27 1014.9 1014.7 0.0
29/06:30pm 19.0 12.9 11.6 62 4.1 W 35 46 19 25 1014.8 1014.6 0.0
29/06:00pm 18.9 13.0 11.0 60 4.3 W 33 46 18 25 1014.6 1014.4 0.0
29/05:39pm 19.0 13.3 11.1 60 4.3 W 32 50 17 27 1014.5 1014.3 0.0
29/05:30pm 18.8 12.3 10.4 58 4.5 W 35 46 19 25 1014.5 1014.3 0.0
29/05:00pm 19.1 13.0 10.6 58 4.6 W 33 46 18 25 1014.5 1014.3 0.0
29/04:30pm 19.3 13.4 10.3 56 4.8 W 32 44 17 24 1014.6 1014.4 0.0
29/04:00pm 19.1 13.2 10.4 57 4.7 W 32 43 17 23 1014.8 1014.6 0.0
29/03:30pm 20.5 14.3 10.0 51 5.7 W 33 43 18 23 1014.7 1014.5 0.0
29/03:00pm 19.5 13.9 12.0 62 4.2 W 33 46 18 25 1014.6 1014.4 0.0
29/02:30pm 20.1 14.4 9.7 51 5.6 W 30 46 16 25 1014.5 1014.3 0.0
29/02:00pm 20.2 12.9 10.3 53 5.4 W 39 52 21 28 1014.4 1014.2 0.0
29/01:30pm 20.5 13.6 11.7 57 4.9 W 39 54 21 29 1014.7 1014.5 0.0
29/01:00pm 20.2 14.6 11.4 57 4.9 W 32 44 17 24 1014.9 1014.7 0.0
29/12:45pm 17.8 12.6 12.7 72 2.8 WSW 32 50 17 27 1015.2 1015.0 0.0
29/12:30pm 19.5 14.7 12.8 65 3.8 W 30 43 16 23 1015.2 1015.0 0.0
29/12:00pm 20.4 14.4 10.8 54 5.2 W 33 43 18 23 1015.3 1015.1 0.0
29/11:30am 19.4 13.3 10.4 56 4.9 WSW 33 46 18 25 1015.6 1015.4 0.0
29/11:00am 19.1 13.5 11.4 61 4.2 W 32 44 17 24 1015.7 1015.5 0.0
29/10:30am 20.2 14.4 10.9 55 5.1 W 32 44 17 24 1015.8 1015.6 0.0
29/10:00am 18.5 14.9 13.1 71 3.0 WSW 24 35 13 19 1016.0 1015.8 0.0
29/09:30am 19.1 14.5 12.4 65 3.7 WSW 28 37 15 20 1016.1 1015.9 0.0
29/09:00am 19.3 14.9 13.0 67 3.6 WNW 28 35 15 19 1016.0 1015.8 2.4
29/08:30am 18.9 15.0 12.2 65 3.7 W 24 32 13 17 1015.7 1015.5 2.4
29/08:00am 18.4 14.3 11.5 64 3.8 WSW 24 30 13 16 1015.7 1015.5 2.4
29/07:30am 18.3 14.0 10.7 61 4.1 WSW 24 32 13 17 1015.3 1015.1 2.4
29/07:00am 17.7 12.9 10.3 62 3.9 WSW 26 33 14 18 1015.3 1015.1 2.4
29/06:30am 17.7 12.5 10.3 62 3.9 WSW 28 37 15 20 1015.2 1015.0 2.4
29/06:00am 17.8 13.2 11.1 65 3.6 WSW 26 35 14 19 1015.2 1015.0 2.4
29/05:30am 17.7 13.4 10.8 64 3.7 W 24 33 13 18 1015.2 1015.0 2.4
29/05:00am 17.2 12.8 9.1 59 4.2 WSW 22 30 12 16 1015.0 1014.8 2.4
29/04:30am 17.3 13.3 9.2 59 4.2 WSW 20 26 11 14 1015.1 1014.9 2.4
29/04:00am 17.4 12.7 9.3 59 4.2 WSW 24 30 13 16 1015.2 1015.0 2.4
29/03:30am 17.6 13.0 9.5 59 4.3 WSW 24 33 13 18 1015.3 1015.1 2.4
29/03:00am 17.6 12.1 9.0 57 4.5 WSW 28 35 15 19 1015.4 1015.2 2.4
29/02:30am 17.6 13.0 9.5 59 4.3 WSW 24 32 13 17 1015.6 1015.4 2.4
29/02:00am 17.9 13.1 10.3 61 4.1 WSW 26 33 14 18 1015.5 1015.3 2.4
29/01:30am 17.5 13.8 9.4 59 4.2 WSW 19 26 10 14 1015.4 1015.2 2.4
29/01:00am 17.5 13.7 9.9 61 4.0 WSW 20 28 11 15 1015.3 1015.1 2.4
29/12:30am 17.6 13.8 9.8 60 4.1 WSW 20 26 11 14 1015.4 1015.2 2.4
29/12:00am 17.6 13.0 9.5 59 4.2 WSW 24 33 13 18 1015.6 1015.4 2.4
 
Date/Time
WST
Temp
°C
App
Temp
°C
Dew
Point
Rel
Hum
%
Delta-T
°C
Wind Press
QNH
hPa
Press
MSL
hPa
Rain
since 9 am
mm
Dir
 
Spd
km/h
Gust
km/h
Spd
kts
Gust
kts
28/11:30pm 17.9 12.6 10.0 60 4.2 WSW 28 35 15 19 1015.6 1015.4 2.4
28/11:00pm 17.9 12.4 9.3 57 4.5 WSW 28 37 15 20 1015.7 1015.5 2.4
28/10:30pm 18.2 12.1 9.8 58 4.5 SW 32 39 17 21 1015.8 1015.6 2.4
28/10:00pm 18.1 12.6 10.7 62 4.0 SW 30 37 16 20 1015.8 1015.6 2.4
28/09:30pm 17.5 12.5 12.2 71 2.9 SW 30 41 16 22 1015.7 1015.5 2.4
28/09:00pm 18.1 12.6 11.9 67 3.4 SW 32 39 17 21 1015.7 1015.5 2.4
28/08:30pm 18.3 13.1 11.6 65 3.7 SW 30 39 16 21 1015.6 1015.4 2.4
28/08:00pm 18.0 12.8 11.6 66 3.5 SW 30 37 16 20 1015.4 1015.2 2.4
28/07:30pm 18.3 12.3 12.1 67 3.4 SW 35 46 19 25 1015.3 1015.1 2.4
28/07:00pm 18.4 12.9 11.7 65 3.7 SW 32 41 17 22 1015.1 1014.9 2.4
28/06:30pm 18.2 12.1 11.7 66 3.6 SW 35 43 19 23 1014.8 1014.6 2.4
28/06:00pm 18.4 12.5 12.4 68 3.3 SW 35 46 19 25 1014.4 1014.2 2.4
28/05:30pm 18.4 12.3 11.7 65 3.7 SW 35 48 19 26 1014.2 1014.0 2.4
28/05:00pm 18.6 11.7 11.7 64 3.8 WSW 39 50 21 27 1013.9 1013.7 2.4
28/04:30pm 18.5 13.1 13.8 74 2.7 WSW 35 46 19 25 1013.8 1013.6 2.4
28/04:00pm 18.4 13.5 14.3 77 2.4 SW 33 48 18 26 1013.8 1013.6 2.4
28/03:30pm 18.7 14.2 15.4 81 1.9 WSW 33 43 18 23 1013.8 1013.6 2.4
28/03:13pm 17.9 12.9 15.0 83 1.7 WSW 35 56 19 30 1013.8 1013.6 2.4
28/03:00pm 17.8 13.2 15.1 84 1.6 WSW 33 43 18 23 1013.7 1013.5 2.4
28/02:32pm 17.0 12.0 14.1 83 1.7 WSW 33 52 18 28 1013.9 1013.7 2.4
28/02:30pm 16.8 11.3 13.7 82 1.8 WSW 35 52 19 28 1013.8 1013.6 2.0
28/02:00pm 19.4 13.7 14.2 72 3.0 WSW 37 46 20 25 1013.6 1013.4 0.6
28/01:41pm 17.9 11.9 14.4 80 2.0 WSW 39 59 21 32 1013.8 1013.6 0.6
28/01:30pm 19.0 12.1 14.1 73 2.8 W 43 57 23 31 1013.8 1013.6 0.6
28/01:00pm 18.9 13.4 14.6 76 2.5 WNW 37 48 20 26 1014.2 1014.0 0.6
28/12:30pm 17.3 12.2 13.6 79 2.1 W 33 46 18 25 1014.6 1014.4 0.6
28/12:19pm 17.8 11.4 13.1 74 2.6 W 39 57 21 31 1014.8 1014.6 0.4
28/12:00pm 20.2 13.8 13.2 64 4.0 WNW 39 50 21 27 1014.7 1014.5 0.0
28/11:30am 18.1 13.0 13.6 75 2.6 W 33 43 18 23 1014.9 1014.7 0.0
28/11:02am 18.9 11.7 11.9 64 3.9 W 41 59 22 32 1015.0 1014.8 0.0
28/11:00am 19.3 12.3 11.1 59 4.5 WNW 39 50 21 27 1014.9 1014.7 0.0
28/10:30am 20.1 13.9 9.9 52 5.5 WNW 33 44 18 24 1015.1 1014.9 0.0
28/10:00am 19.6 12.0 8.9 50 5.6 WNW 39 48 21 26 1015.3 1015.1 0.0
28/09:30am 18.2 12.0 11.3 64 3.8 W 35 46 19 25 1015.7 1015.5 0.0
28/09:18am 18.2 13.7 12.6 70 3.1 WNW 28 52 15 28 1015.6 1015.4 0.0
28/09:00am 16.3 11.3 12.1 76 2.3 WNW 30 43 16 23 1015.7 1015.5 2.0
28/08:37am 18.0 12.9 11.8 67 3.4 W 30 54 16 29 1015.7 1015.5 1.8
28/08:30am 17.8 12.5 9.9 60 4.2 W 28 41 15 22 1015.5 1015.3 1.8
28/08:00am 17.9 12.2 11.2 65 3.6 W 32 41 17 22 1015.1 1014.9 1.8
28/07:30am 17.4 12.4 11.0 66 3.5 W 28 39 15 21 1014.8 1014.6 1.8
28/07:00am 16.8 11.9 11.3 70 3.0 W 28 39 15 21 1014.6 1014.4 1.8
28/06:30am 16.6 10.9 11.1 70 3.0 WNW 32 43 17 23 1014.7 1014.5 1.8
28/06:00am 16.4 11.3 12.0 75 2.4 WNW 30 46 16 25 1014.5 1014.3 1.8
28/05:31am 16.8 12.0 11.7 72 2.8 WNW 28 54 15 29 1014.6 1014.4 1.8
28/05:30am 16.7 11.9 11.6 72 2.8 WNW 28 35 15 19 1014.5 1014.3 1.8
28/05:00am 15.8 11.1 10.8 72 2.7 WNW 26 37 14 20 1014.4 1014.2 1.8
28/04:30am 15.3 12.0 11.7 79 1.9 W 20 30 11 16 1014.8 1014.6 1.8
28/04:00am 15.2 9.7 11.8 80 1.8 WSW 32 43 17 23 1014.8 1014.6 1.8
28/03:45am 16.0 11.6 11.6 75 2.4 W 26 50 14 27 1014.8 1014.6 1.8
28/03:30am 16.0 11.1 11.2 73 2.6 WNW 28 37 15 20 1014.8 1014.6 1.8
28/03:00am 15.1 11.8 10.9 76 2.2 NW 19 26 10 14 1015.0 1014.8 1.8
28/02:30am 14.7 10.4 10.9 78 2.0 NW 24 32 13 17 1015.7 1015.5 1.8
28/02:00am 14.8 9.3 10.4 75 2.3 W 30 41 16 22 1015.8 1015.6 1.6
28/01:30am 16.1 12.4 9.5 65 3.4 W 19 24 10 13 1015.7 1015.5 1.2
28/01:00am 16.0 12.7 9.4 65 3.4 W 17 24 9 13 1015.7 1015.5 1.2
28/12:30am 15.7 12.2 8.7 63 3.6 W 17 20 9 11 1015.7 1015.5 1.2
28/12:00am 15.3 11.7 8.3 63 3.5 WNW 17 22 9 12 1015.9 1015.7 1.2
 
Date/Time
WST
Temp
°C
App
Temp
°C
Dew
Point
Rel
Hum
%
Delta-T
°C
Wind Press
QNH
hPa
Press
MSL
hPa
Rain
since 9 am
mm
Dir
 
Spd
km/h
Gust
km/h
Spd
kts
Gust
kts
27/11:30pm 15.5 11.9 8.5 63 3.6 W 17 26 9 14 1016.2 1016.0 1.2
27/11:00pm 15.9 14.5 9.6 66 3.3 W 7 11 4 6 1016.2 1016.0 1.2
27/10:30pm 15.7 14.3 9.4 66 3.3 W 7 9 4 5 1016.4 1016.2 1.2
27/10:00pm 15.6 14.8 9.7 68 3.1 WSW 4 6 2 3 1016.7 1016.5 1.2
27/09:30pm 15.3 13.5 9.4 68 3.0 SW 9 11 5 6 1017.1 1017.0 1.2
27/09:00pm 15.3 14.0 9.9 70 2.8 SW 7 9 4 5 1017.0 1016.9 1.2
27/08:30pm 15.2 13.1 9.8 70 2.8 SW 11 13 6 7 1017.2 1017.1 1.2
27/08:00pm 14.7 14.3 9.9 73 2.5 WNW 2 7 1 4 1017.2 1017.1 1.2
27/07:30pm 15.1 13.8 9.9 71 2.7 SSE 7 15 4 8 1017.0 1016.9 1.2
27/07:00pm 14.9 14.1 9.5 70 2.8 E 4 7 2 4 1016.9 1016.8 1.2
27/06:30pm 15.2 15.2 9.8 70 2.8 CALM 0 0 0 0 1016.8 1016.7 1.2
27/06:00pm 14.9 13.8 9.9 72 2.6 ENE 6 7 3 4 1016.4 1016.2 1.2
27/05:30pm 15.4 15.5 10.2 71 2.7 CALM 0 0 0 0 1016.3 1016.1 1.2
27/05:00pm 15.7 15.8 10.2 70 2.9 CALM 0 4 0 2 1016.5 1016.3 1.2
27/04:30pm 15.6 14.1 10.6 72 2.6 SE 9 11 5 6 1016.4 1016.2 1.2
27/04:00pm 15.7 13.7 10.2 70 2.9 ESE 11 15 6 8 1016.4 1016.2 1.0
27/03:30pm 17.2 15.1 11.2 68 3.2 E 13 17 7 9 1016.3 1016.1 1.0
27/03:00pm 17.5 15.8 11.1 66 3.5 W 11 17 6 9 1016.3 1016.1 1.0
27/02:30pm 17.2 15.1 11.2 68 3.2 N 13 20 7 11 1016.3 1016.1 1.0
27/02:00pm 16.9 15.6 11.4 70 3.0 NE 9 15 5 8 1016.4 1016.2 1.0
27/01:30pm 17.5 16.4 13.2 76 2.4 NNE 11 13 6 7 1016.5 1016.3 1.0
27/01:00pm 16.4 14.9 13.1 81 1.8 NE 13 17 7 9 1016.8 1016.7 1.0
27/12:30pm 14.7 13.2 12.0 84 1.5 ENE 11 13 6 7 1017.1 1017.0 1.0
27/12:00pm 14.5 13.4 12.0 85 1.4 NE 9 13 5 7 1017.6 1017.5 1.0
27/11:30am 13.8 12.3 10.6 81 1.7 NW 9 11 5 6 1017.9 1017.8 1.0
27/11:00am 14.8 12.5 10.6 76 2.2 NNE 13 20 7 11 1017.9 1017.8 0.2
27/10:30am 15.0 13.0 11.4 79 1.9 NE 13 17 7 9 1017.9 1017.8 0.0
27/10:00am 14.4 13.0 10.8 79 1.9 NE 9 13 5 7 1018.2 1018.1 0.0
27/09:30am 15.2 13.1 12.3 83 1.6 NE 15 20 8 11 1017.8 1017.7 0.0
27/09:00am 14.4 12.7 12.4 88 1.1 NE 13 17 7 9 1018.1 1018.0 5.0
27/08:30am 13.0 12.1 11.2 89 1.0 NNE 7 15 4 8 1018.2 1018.1 5.0
27/08:00am 12.6 10.8 11.0 90 0.8 ENE 11 17 6 9 1017.8 1017.7 4.8
27/07:30am 12.9 10.8 11.1 89 0.9 NE 13 17 7 9 1017.4 1017.3 3.6
27/07:00am 12.6 10.8 11.0 90 0.8 NNE 11 15 6 8 1017.2 1017.1 3.6
27/06:30am 12.4 11.0 10.8 90 0.8 NE 9 17 5 9 1016.9 1016.8 3.4
27/06:00am 12.3 10.0 10.5 89 0.9 ENE 13 17 7 9 1016.8 1016.7 3.2
27/05:30am 12.2 9.5 10.4 89 0.9 ENE 15 20 8 11 1016.8 1016.7 3.2
27/05:00am 12.2 10.3 10.4 89 0.9 E 11 15 6 8 1017.0 1016.9 2.8
27/04:30am 12.0 10.4 10.1 88 1.0 ESE 9 20 5 11 1016.6 1016.4 2.6
27/04:00am 12.4 10.1 10.3 87 1.1 ESE 13 20 7 11 1016.6 1016.4 2.6
27/03:30am 12.9 11.4 10.4 85 1.3 NW 9 20 5 11 1016.5 1016.3 2.6
27/03:00am 12.8 11.6 10.2 84 1.3 NE 7 11 4 6 1015.9 1015.7 1.2
27/02:30am 12.8 10.8 10.0 83 1.4 NE 11 17 6 9 1016.0 1015.8 1.2
27/02:00am 13.0 10.5 9.8 81 1.6 E 13 20 7 11 1016.0 1015.8 0.6
27/01:30am 13.1 9.9 9.9 81 1.6 E 17 22 9 12 1016.0 1015.8 0.6
27/01:00am 13.2 10.3 9.6 79 1.8 ESE 15 20 8 11 1015.9 1015.7 0.6
27/12:30am 13.6 9.7 9.6 77 2.1 ESE 20 30 11 16 1015.6 1015.4 0.6
27/12:00am 14.6 9.3 10.0 74 2.4 SSE 28 41 15 22 1015.6 1015.4 0.6

Other Formats:

Comma delimited format used in spreadsheet applications
http://www.bom.gov.au/fwo/IDW60801/IDW60801.94602.axf

JavaScript Object Notation format (JSON) in row-major order
http://www.bom.gov.au/fwo/IDW60801/IDW60801.94602.json